Clayton, LA (71326)

5:55 PM CST on February 09, 2016 (GMT -0600)
Rural Eastern Louisiana | | Change Station
CLOSE
Current Station
Personal Weather Station
Location: Ridgecrest, LA
Elevation: 69 ft
Nearby Weather Stations
Active Advisory: Wind Advisory Active Notice: Public Information Statement

Elev 69 ft 31.60 °N, 91.53 °W | Updated 24 seconds ago

Clear
Clear
52.3 °F
Feels Like 52.3 °F
N
2.5
Wind Variable Wind from NNE
Gusts 4.9 mph

Today
High -- | Low -- °F
--% Chance of Precip.
Yesterday
High -- | Low -- °F
Precip. -- in
Pressure 30.11 in
Visibility 10.0 miles
Clouds Clear
Dew Point 21 °F
Humidity 29%
Rainfall 0.00 in
Snow Depth Not available.
6:53 AM 5:47 PM
Waxing Crescent, 3% visible
METAR KHEZ 092335Z AUTO 31012G18KT 10SM CLR 11/M07 A3011 RMK AO1
Pressure 30.11 in
Visibility 10.0 miles
Clouds Clear
Dew Point 21 °F
Humidity 29%
Rainfall 0.00 in
Snow Depth Not available.
6:53 AM 5:47 PM
Waxing Crescent, 3% visible
METAR KHEZ 092335Z AUTO 31012G18KT 10SM CLR 11/M07 A3011 RMK AO1

10-Day Weather Forecast

Almanac

Astronomy

Feb. 09, 2016 Rise Set
Actual Time
Civil Twilight
Nautical Twilight
Astronomical Twilight
Moon
Length of Visible Light
Length of Day
Tomorrow will be .
, % of the Moon is Illuminated

Today's Extremes

State Highs State Lows

Community

WunderPhotos

Upload Photos

1,891,744 photos uploaded!

WunderBlog® & News

Nearby

Air Quality

  Air Quality AQ Index Pollutant
Not available.

Snow Depth

Station Depth Elevation

Earthquake Activity

City Distance Mag. Time & Date
Minimum magnitude displayed is 2.5.

Coastal Water Temperatures

Place Temperature

Stations

Nearby Weather Stations

Station Location Temp. Windchill Dew Point Humidity Wind Precip. Elev Updated Type
                   

Watches & Warnings

Wind Advisory
Issued: 10:37 AM CST Feb. 9, 2016 – National Weather Service

... Wind Advisory remains in effect until 6 PM CST this evening...

* timing... 10 am until 6 PM

* winds... 20 to 30 mph with gusts around 35 mph

* impacts... these winds can knock down rotten trees and affect
travel in high profile vehicles

Precautionary/preparedness actions...

A Wind Advisory means that winds of 20 to 30 mph are expected.
Winds this strong can make driving difficult... especially for
high profile vehicles. Use extra caution when driving.

Wind gusts around 40 mph can occasionally bring down large limbs
and rotten trees causing serious injury and property damage.
Exercise caution when outdoors during these conditions.



15